sensor_id;sensor_type;location;lat;lon;timestamp;P1;durP1;ratioP1;P2;durP2;ratioP2
15567;SDS011;7885;42.596;23.044;2023-04-23T00:00:24;9.30;;;6.20;;
15567;SDS011;7885;42.596;23.044;2023-04-23T00:02:51;13.13;;;9.03;;
15567;SDS011;7885;42.596;23.044;2023-04-23T00:05:19;14.03;;;9.10;;
15567;SDS011;7885;42.596;23.044;2023-04-23T00:07:47;11.60;;;8.07;;
15567;SDS011;7885;42.596;23.044;2023-04-23T00:10:15;14.50;;;9.80;;
15567;SDS011;7885;42.596;23.044;2023-04-23T00:12:43;12.83;;;8.97;;
15567;SDS011;7885;42.596;23.044;2023-04-23T00:15:11;13.90;;;9.37;;
15567;SDS011;7885;42.596;23.044;2023-04-23T00:17:39;14.40;;;11.03;;
15567;SDS011;7885;42.596;23.044;2023-04-23T00:20:06;14.10;;;10.30;;
15567;SDS011;7885;42.596;23.044;2023-04-23T00:22:34;14.50;;;10.10;;
15567;SDS011;7885;42.596;23.044;2023-04-23T00:25:00;17.13;;;11.33;;
15567;SDS011;7885;42.596;23.044;2023-04-23T00:27:28;21.27;;;12.73;;
15567;SDS011;7885;42.596;23.044;2023-04-23T00:29:55;14.57;;;9.17;;
15567;SDS011;7885;42.596;23.044;2023-04-23T00:32:22;12.27;;;7.90;;
15567;SDS011;7885;42.596;23.044;2023-04-23T00:34:49;11.90;;;8.17;;
15567;SDS011;7885;42.596;23.044;2023-04-23T00:37:15;13.33;;;8.40;;
15567;SDS011;7885;42.596;23.044;2023-04-23T00:39:42;11.00;;;8.47;;
15567;SDS011;7885;42.596;23.044;2023-04-23T00:42:09;11.27;;;8.13;;
15567;SDS011;7885;42.596;23.044;2023-04-23T00:44:38;13.10;;;8.87;;
15567;SDS011;7885;42.596;23.044;2023-04-23T00:47:05;11.07;;;7.57;;
15567;SDS011;7885;42.596;23.044;2023-04-23T00:49:32;14.07;;;8.90;;
15567;SDS011;7885;42.596;23.044;2023-04-23T00:51:59;10.20;;;7.80;;
15567;SDS011;7885;42.596;23.044;2023-04-23T00:54:26;13.40;;;9.47;;
15567;SDS011;7885;42.596;23.044;2023-04-23T00:56:53;15.00;;;8.50;;
15567;SDS011;7885;42.596;23.044;2023-04-23T00:59:22;16.33;;;11.07;;
15567;SDS011;7885;42.596;23.044;2023-04-23T01:01:51;15.40;;;10.37;;
15567;SDS011;7885;42.596;23.044;2023-04-23T01:04:18;11.47;;;8.53;;
15567;SDS011;7885;42.596;23.044;2023-04-23T01:06:46;11.57;;;8.10;;
15567;SDS011;7885;42.596;23.044;2023-04-23T01:09:14;14.03;;;9.80;;
15567;SDS011;7885;42.596;23.044;2023-04-23T01:11:42;14.80;;;9.80;;
15567;SDS011;7885;42.596;23.044;2023-04-23T01:14:09;16.03;;;9.53;;
15567;SDS011;7885;42.596;23.044;2023-04-23T01:16:36;18.43;;;12.10;;
15567;SDS011;7885;42.596;23.044;2023-04-23T01:19:07;16.13;;;11.57;;
15567;SDS011;7885;42.596;23.044;2023-04-23T01:21:35;14.97;;;10.07;;
15567;SDS011;7885;42.596;23.044;2023-04-23T01:24:07;11.87;;;8.20;;
15567;SDS011;7885;42.596;23.044;2023-04-23T01:26:34;9.93;;;7.87;;
15567;SDS011;7885;42.596;23.044;2023-04-23T01:29:01;9.03;;;7.37;;
15567;SDS011;7885;42.596;23.044;2023-04-23T01:31:28;11.03;;;7.83;;
15567;SDS011;7885;42.596;23.044;2023-04-23T01:33:56;12.70;;;8.13;;
15567;SDS011;7885;42.596;23.044;2023-04-23T01:36:24;12.70;;;7.83;;
15567;SDS011;7885;42.596;23.044;2023-04-23T01:38:51;12.73;;;9.10;;
15567;SDS011;7885;42.596;23.044;2023-04-23T01:41:19;13.27;;;9.60;;
15567;SDS011;7885;42.596;23.044;2023-04-23T01:43:46;16.10;;;10.43;;
15567;SDS011;7885;42.596;23.044;2023-04-23T01:46:13;9.60;;;8.17;;
15567;SDS011;7885;42.596;23.044;2023-04-23T01:48:40;13.23;;;8.93;;
15567;SDS011;7885;42.596;23.044;2023-04-23T01:51:07;15.57;;;10.30;;
15567;SDS011;7885;42.596;23.044;2023-04-23T01:53:34;18.73;;;11.60;;
15567;SDS011;7885;42.596;23.044;2023-04-23T01:56:00;27.73;;;14.43;;
15567;SDS011;7885;42.596;23.044;2023-04-23T01:58:29;25.47;;;13.10;;
15567;SDS011;7885;42.596;23.044;2023-04-23T02:00:56;32.17;;;13.87;;
15567;SDS011;7885;42.596;23.044;2023-04-23T02:03:22;33.00;;;12.93;;
15567;SDS011;7885;42.596;23.044;2023-04-23T02:05:49;37.47;;;13.07;;
15567;SDS011;7885;42.596;23.044;2023-04-23T02:08:19;36.97;;;12.10;;
15567;SDS011;7885;42.596;23.044;2023-04-23T02:10:46;31.93;;;10.80;;
15567;SDS011;7885;42.596;23.044;2023-04-23T02:13:12;25.33;;;9.47;;
15567;SDS011;7885;42.596;23.044;2023-04-23T02:15:41;23.30;;;9.10;;
15567;SDS011;7885;42.596;23.044;2023-04-23T02:18:08;26.77;;;9.27;;
15567;SDS011;7885;42.596;23.044;2023-04-23T02:20:36;20.17;;;9.73;;
15567;SDS011;7885;42.596;23.044;2023-04-23T02:23:05;30.60;;;10.93;;
15567;SDS011;7885;42.596;23.044;2023-04-23T02:25:32;19.93;;;9.00;;
15567;SDS011;7885;42.596;23.044;2023-04-23T02:27:58;22.53;;;9.33;;
15567;SDS011;7885;42.596;23.044;2023-04-23T02:30:29;22.27;;;9.17;;
15567;SDS011;7885;42.596;23.044;2023-04-23T02:32:57;21.87;;;9.90;;
15567;SDS011;7885;42.596;23.044;2023-04-23T02:35:24;28.77;;;11.27;;
15567;SDS011;7885;42.596;23.044;2023-04-23T02:37:51;23.77;;;9.77;;
15567;SDS011;7885;42.596;23.044;2023-04-23T02:40:18;28.60;;;10.37;;
15567;SDS011;7885;42.596;23.044;2023-04-23T02:42:45;20.17;;;9.63;;
15567;SDS011;7885;42.596;23.044;2023-04-23T02:45:12;25.20;;;10.80;;
15567;SDS011;7885;42.596;23.044;2023-04-23T02:47:38;22.33;;;9.87;;
15567;SDS011;7885;42.596;23.044;2023-04-23T02:50:07;29.57;;;10.03;;
15567;SDS011;7885;42.596;23.044;2023-04-23T02:52:34;19.07;;;10.17;;
15567;SDS011;7885;42.596;23.044;2023-04-23T02:55:01;24.00;;;11.00;;
15567;SDS011;7885;42.596;23.044;2023-04-23T02:57:28;26.93;;;11.47;;
15567;SDS011;7885;42.596;23.044;2023-04-23T02:59:55;20.33;;;12.97;;
15567;SDS011;7885;42.596;23.044;2023-04-23T03:02:21;25.50;;;11.23;;
15567;SDS011;7885;42.596;23.044;2023-04-23T03:04:48;24.07;;;10.23;;
15567;SDS011;7885;42.596;23.044;2023-04-23T03:07:16;23.80;;;11.30;;
15567;SDS011;7885;42.596;23.044;2023-04-23T03:09:43;28.10;;;11.27;;
15567;SDS011;7885;42.596;23.044;2023-04-23T03:12:10;23.23;;;10.83;;
15567;SDS011;7885;42.596;23.044;2023-04-23T03:14:37;22.10;;;11.20;;
15567;SDS011;7885;42.596;23.044;2023-04-23T03:17:03;25.90;;;11.30;;
15567;SDS011;7885;42.596;23.044;2023-04-23T03:19:30;24.77;;;10.67;;
15567;SDS011;7885;42.596;23.044;2023-04-23T03:21:57;19.87;;;8.93;;
15567;SDS011;7885;42.596;23.044;2023-04-23T03:24:25;22.23;;;9.27;;
15567;SDS011;7885;42.596;23.044;2023-04-23T03:26:52;25.03;;;9.67;;
15567;SDS011;7885;42.596;23.044;2023-04-23T03:29:18;25.03;;;10.60;;
15567;SDS011;7885;42.596;23.044;2023-04-23T03:31:45;27.47;;;12.10;;
15567;SDS011;7885;42.596;23.044;2023-04-23T03:34:12;28.80;;;13.27;;
15567;SDS011;7885;42.596;23.044;2023-04-23T03:36:38;31.93;;;21.60;;
15567;SDS011;7885;42.596;23.044;2023-04-23T03:39:05;43.63;;;26.00;;
15567;SDS011;7885;42.596;23.044;2023-04-23T03:41:34;29.60;;;20.10;;
15567;SDS011;7885;42.596;23.044;2023-04-23T03:44:01;19.47;;;9.80;;
15567;SDS011;7885;42.596;23.044;2023-04-23T03:46:27;16.57;;;9.17;;
15567;SDS011;7885;42.596;23.044;2023-04-23T03:48:54;18.50;;;9.37;;
15567;SDS011;7885;42.596;23.044;2023-04-23T03:51:21;28.60;;;10.73;;
15567;SDS011;7885;42.596;23.044;2023-04-23T03:53:48;22.67;;;11.23;;
15567;SDS011;7885;42.596;23.044;2023-04-23T03:56:14;17.97;;;10.03;;
15567;SDS011;7885;42.596;23.044;2023-04-23T03:58:43;20.90;;;10.67;;
15567;SDS011;7885;42.596;23.044;2023-04-23T04:01:10;19.90;;;10.10;;
15567;SDS011;7885;42.596;23.044;2023-04-23T04:03:36;16.33;;;9.43;;
15567;SDS011;7885;42.596;23.044;2023-04-23T04:06:03;19.70;;;10.97;;
15567;SDS011;7885;42.596;23.044;2023-04-23T04:08:30;25.03;;;12.30;;
15567;SDS011;7885;42.596;23.044;2023-04-23T04:10:57;21.33;;;12.37;;
15567;SDS011;7885;42.596;23.044;2023-04-23T04:13:23;36.63;;;17.03;;
15567;SDS011;7885;42.596;23.044;2023-04-23T04:15:51;35.30;;;17.27;;
15567;SDS011;7885;42.596;23.044;2023-04-23T04:18:18;26.20;;;16.00;;
15567;SDS011;7885;42.596;23.044;2023-04-23T04:20:45;24.43;;;12.67;;
15567;SDS011;7885;42.596;23.044;2023-04-23T04:23:12;22.17;;;12.17;;
15567;SDS011;7885;42.596;23.044;2023-04-23T04:25:38;24.53;;;10.97;;
15567;SDS011;7885;42.596;23.044;2023-04-23T04:28:05;23.30;;;12.53;;
15567;SDS011;7885;42.596;23.044;2023-04-23T04:30:33;26.43;;;13.67;;
15567;SDS011;7885;42.596;23.044;2023-04-23T04:33:01;24.93;;;12.70;;
15567;SDS011;7885;42.596;23.044;2023-04-23T04:35:28;20.23;;;12.37;;
15567;SDS011;7885;42.596;23.044;2023-04-23T04:37:55;23.80;;;12.67;;
15567;SDS011;7885;42.596;23.044;2023-04-23T04:40:23;26.97;;;12.30;;
15567;SDS011;7885;42.596;23.044;2023-04-23T04:42:50;19.67;;;12.17;;
15567;SDS011;7885;42.596;23.044;2023-04-23T04:45:17;18.67;;;12.40;;
15567;SDS011;7885;42.596;23.044;2023-04-23T04:47:44;19.70;;;11.40;;
15567;SDS011;7885;42.596;23.044;2023-04-23T04:50:12;15.67;;;11.17;;
15567;SDS011;7885;42.596;23.044;2023-04-23T04:52:39;17.10;;;11.37;;
15567;SDS011;7885;42.596;23.044;2023-04-23T04:55:06;16.27;;;12.97;;
15567;SDS011;7885;42.596;23.044;2023-04-23T04:57:33;21.97;;;13.67;;
15567;SDS011;7885;42.596;23.044;2023-04-23T05:00:00;23.50;;;14.30;;
15567;SDS011;7885;42.596;23.044;2023-04-23T05:02:44;23.53;;;13.13;;
15567;SDS011;7885;42.596;23.044;2023-04-23T05:05:12;27.37;;;14.50;;
15567;SDS011;7885;42.596;23.044;2023-04-23T05:07:39;31.10;;;13.60;;
15567;SDS011;7885;42.596;23.044;2023-04-23T05:10:06;29.83;;;15.07;;
15567;SDS011;7885;42.596;23.044;2023-04-23T05:12:33;24.97;;;14.60;;
15567;SDS011;7885;42.596;23.044;2023-04-23T05:18:23;36.27;;;15.80;;
15567;SDS011;7885;42.596;23.044;2023-04-23T05:20:51;37.40;;;19.77;;
15567;SDS011;7885;42.596;23.044;2023-04-23T05:23:18;32.33;;;19.13;;
15567;SDS011;7885;42.596;23.044;2023-04-23T05:25:45;34.77;;;21.53;;
15567;SDS011;7885;42.596;23.044;2023-04-23T05:28:12;36.97;;;18.93;;
15567;SDS011;7885;42.596;23.044;2023-04-23T05:30:39;36.17;;;19.10;;
15567;SDS011;7885;42.596;23.044;2023-04-23T05:33:06;36.37;;;16.97;;
15567;SDS011;7885;42.596;23.044;2023-04-23T05:35:32;29.17;;;15.63;;
15567;SDS011;7885;42.596;23.044;2023-04-23T05:38:01;33.03;;;14.00;;
15567;SDS011;7885;42.596;23.044;2023-04-23T05:40:29;27.97;;;13.27;;
15567;SDS011;7885;42.596;23.044;2023-04-23T05:42:56;30.30;;;14.93;;
15567;SDS011;7885;42.596;23.044;2023-04-23T05:45:23;29.53;;;13.70;;
15567;SDS011;7885;42.596;23.044;2023-04-23T05:47:50;30.70;;;14.70;;
15567;SDS011;7885;42.596;23.044;2023-04-23T05:50:17;30.30;;;13.90;;
15567;SDS011;7885;42.596;23.044;2023-04-23T05:52:44;34.93;;;14.47;;
15567;SDS011;7885;42.596;23.044;2023-04-23T05:55:12;28.73;;;13.20;;
15567;SDS011;7885;42.596;23.044;2023-04-23T05:57:40;20.90;;;13.27;;
15567;SDS011;7885;42.596;23.044;2023-04-23T06:00:07;29.17;;;13.83;;
15567;SDS011;7885;42.596;23.044;2023-04-23T06:02:35;31.87;;;14.23;;
15567;SDS011;7885;42.596;23.044;2023-04-23T06:05:02;24.90;;;13.97;;
15567;SDS011;7885;42.596;23.044;2023-04-23T06:07:30;22.63;;;12.60;;
15567;SDS011;7885;42.596;23.044;2023-04-23T06:09:56;21.67;;;12.70;;
15567;SDS011;7885;42.596;23.044;2023-04-23T06:12:25;24.40;;;13.33;;
15567;SDS011;7885;42.596;23.044;2023-04-23T06:14:51;28.07;;;12.40;;
15567;SDS011;7885;42.596;23.044;2023-04-23T06:17:18;22.17;;;11.80;;
15567;SDS011;7885;42.596;23.044;2023-04-23T06:19:45;19.10;;;11.67;;
15567;SDS011;7885;42.596;23.044;2023-04-23T06:22:12;24.97;;;12.03;;
15567;SDS011;7885;42.596;23.044;2023-04-23T06:24:39;21.93;;;11.67;;
15567;SDS011;7885;42.596;23.044;2023-04-23T06:27:05;21.13;;;12.00;;
15567;SDS011;7885;42.596;23.044;2023-04-23T06:29:33;27.13;;;12.53;;
15567;SDS011;7885;42.596;23.044;2023-04-23T06:32:00;32.20;;;13.67;;
15567;SDS011;7885;42.596;23.044;2023-04-23T06:34:29;24.93;;;13.70;;
15567;SDS011;7885;42.596;23.044;2023-04-23T06:36:55;28.50;;;13.87;;
15567;SDS011;7885;42.596;23.044;2023-04-23T06:39:22;23.57;;;12.90;;
15567;SDS011;7885;42.596;23.044;2023-04-23T06:41:49;32.00;;;14.23;;
15567;SDS011;7885;42.596;23.044;2023-04-23T06:44:16;29.20;;;13.13;;
15567;SDS011;7885;42.596;23.044;2023-04-23T06:46:44;28.87;;;13.23;;
15567;SDS011;7885;42.596;23.044;2023-04-23T06:49:11;23.90;;;12.70;;
15567;SDS011;7885;42.596;23.044;2023-04-23T06:51:37;25.03;;;12.87;;
15567;SDS011;7885;42.596;23.044;2023-04-23T06:54:04;22.50;;;11.50;;
15567;SDS011;7885;42.596;23.044;2023-04-23T06:56:31;21.33;;;10.67;;
15567;SDS011;7885;42.596;23.044;2023-04-23T06:58:57;15.43;;;10.13;;
15567;SDS011;7885;42.596;23.044;2023-04-23T07:01:25;17.70;;;10.63;;
15567;SDS011;7885;42.596;23.044;2023-04-23T07:03:53;20.73;;;11.07;;
15567;SDS011;7885;42.596;23.044;2023-04-23T07:06:20;16.40;;;9.93;;
15567;SDS011;7885;42.596;23.044;2023-04-23T07:08:46;16.70;;;10.77;;
15567;SDS011;7885;42.596;23.044;2023-04-23T07:11:13;18.77;;;9.87;;
15567;SDS011;7885;42.596;23.044;2023-04-23T07:13:40;14.77;;;9.63;;
15567;SDS011;7885;42.596;23.044;2023-04-23T07:16:07;15.40;;;9.17;;
15567;SDS011;7885;42.596;23.044;2023-04-23T07:18:34;14.70;;;9.50;;
15567;SDS011;7885;42.596;23.044;2023-04-23T07:21:02;16.53;;;9.37;;
15567;SDS011;7885;42.596;23.044;2023-04-23T07:23:29;12.00;;;7.07;;
15567;SDS011;7885;42.596;23.044;2023-04-23T07:25:56;10.53;;;7.43;;
15567;SDS011;7885;42.596;23.044;2023-04-23T07:28:23;10.20;;;7.17;;
15567;SDS011;7885;42.596;23.044;2023-04-23T07:30:50;14.70;;;7.90;;
15567;SDS011;7885;42.596;23.044;2023-04-23T07:33:17;9.80;;;7.27;;
15567;SDS011;7885;42.596;23.044;2023-04-23T07:35:44;11.93;;;6.40;;
15567;SDS011;7885;42.596;23.044;2023-04-23T07:38:12;12.33;;;7.27;;
15567;SDS011;7885;42.596;23.044;2023-04-23T07:40:39;7.87;;;6.73;;
15567;SDS011;7885;42.596;23.044;2023-04-23T07:43:05;10.07;;;6.73;;
15567;SDS011;7885;42.596;23.044;2023-04-23T07:45:32;7.93;;;5.77;;
15567;SDS011;7885;42.596;23.044;2023-04-23T07:47:59;10.43;;;6.40;;
15567;SDS011;7885;42.596;23.044;2023-04-23T07:50:26;8.97;;;6.77;;
15567;SDS011;7885;42.596;23.044;2023-04-23T07:52:53;8.10;;;6.00;;
15567;SDS011;7885;42.596;23.044;2023-04-23T07:55:21;5.93;;;5.33;;
15567;SDS011;7885;42.596;23.044;2023-04-23T07:57:48;6.73;;;5.93;;
15567;SDS011;7885;42.596;23.044;2023-04-23T08:00:15;5.13;;;4.00;;
15567;SDS011;7885;42.596;23.044;2023-04-23T08:02:42;5.73;;;5.23;;
15567;SDS011;7885;42.596;23.044;2023-04-23T08:05:09;6.37;;;4.17;;
15567;SDS011;7885;42.596;23.044;2023-04-23T08:07:35;5.97;;;4.47;;
15567;SDS011;7885;42.596;23.044;2023-04-23T08:10:02;5.57;;;4.00;;
15567;SDS011;7885;42.596;23.044;2023-04-23T08:12:32;5.23;;;4.33;;
15567;SDS011;7885;42.596;23.044;2023-04-23T08:15:00;4.83;;;3.90;;
15567;SDS011;7885;42.596;23.044;2023-04-23T08:17:26;5.53;;;4.00;;
15567;SDS011;7885;42.596;23.044;2023-04-23T08:19:53;5.73;;;3.23;;
15567;SDS011;7885;42.596;23.044;2023-04-23T08:22:20;4.37;;;3.00;;
15567;SDS011;7885;42.596;23.044;2023-04-23T08:24:47;6.27;;;3.33;;
15567;SDS011;7885;42.596;23.044;2023-04-23T08:27:13;5.43;;;3.13;;
15567;SDS011;7885;42.596;23.044;2023-04-23T08:29:41;3.70;;;3.23;;
15567;SDS011;7885;42.596;23.044;2023-04-23T08:32:08;4.93;;;3.30;;
15567;SDS011;7885;42.596;23.044;2023-04-23T08:34:35;4.60;;;3.07;;
15567;SDS011;7885;42.596;23.044;2023-04-23T08:37:02;3.87;;;3.40;;
15567;SDS011;7885;42.596;23.044;2023-04-23T08:39:29;6.53;;;3.10;;
15567;SDS011;7885;42.596;23.044;2023-04-23T08:41:57;5.50;;;3.10;;
15567;SDS011;7885;42.596;23.044;2023-04-23T08:44:28;5.03;;;3.20;;
15567;SDS011;7885;42.596;23.044;2023-04-23T08:50:19;13.97;;;3.27;;
15567;SDS011;7885;42.596;23.044;2023-04-23T08:52:48;4.33;;;2.90;;
15567;SDS011;7885;42.596;23.044;2023-04-23T08:55:18;3.03;;;2.77;;
15567;SDS011;7885;42.596;23.044;2023-04-23T08:57:46;6.13;;;3.17;;
15567;SDS011;7885;42.596;23.044;2023-04-23T09:00:14;14.23;;;3.87;;
15567;SDS011;7885;42.596;23.044;2023-04-23T09:02:44;6.37;;;3.27;;
15567;SDS011;7885;42.596;23.044;2023-04-23T09:05:12;5.10;;;3.40;;
15567;SDS011;7885;42.596;23.044;2023-04-23T09:07:41;6.13;;;3.43;;
15567;SDS011;7885;42.596;23.044;2023-04-23T09:10:08;6.47;;;3.20;;
15567;SDS011;7885;42.596;23.044;2023-04-23T09:12:37;6.53;;;3.20;;
15567;SDS011;7885;42.596;23.044;2023-04-23T09:15:05;9.83;;;3.50;;
15567;SDS011;7885;42.596;23.044;2023-04-23T09:17:35;4.30;;;2.60;;
15567;SDS011;7885;42.596;23.044;2023-04-23T09:20:04;4.90;;;2.50;;
15567;SDS011;7885;42.596;23.044;2023-04-23T09:22:40;4.57;;;2.40;;
15567;SDS011;7885;42.596;23.044;2023-04-23T09:25:09;3.60;;;3.30;;
15567;SDS011;7885;42.596;23.044;2023-04-23T09:27:36;5.20;;;3.17;;
15567;SDS011;7885;42.596;23.044;2023-04-23T09:30:03;4.40;;;2.70;;
15567;SDS011;7885;42.596;23.044;2023-04-23T09:32:32;4.63;;;2.77;;
15567;SDS011;7885;42.596;23.044;2023-04-23T09:35:01;4.97;;;3.43;;
15567;SDS011;7885;42.596;23.044;2023-04-23T09:37:29;3.30;;;2.90;;
15567;SDS011;7885;42.596;23.044;2023-04-23T09:39:58;5.73;;;2.97;;
15567;SDS011;7885;42.596;23.044;2023-04-23T09:42:25;6.90;;;3.40;;
15567;SDS011;7885;42.596;23.044;2023-04-23T09:44:55;8.67;;;2.93;;
15567;SDS011;7885;42.596;23.044;2023-04-23T09:47:22;4.73;;;2.83;;
15567;SDS011;7885;42.596;23.044;2023-04-23T09:49:49;7.40;;;3.40;;
15567;SDS011;7885;42.596;23.044;2023-04-23T09:52:16;3.93;;;3.20;;
15567;SDS011;7885;42.596;23.044;2023-04-23T09:54:44;5.83;;;3.30;;
15567;SDS011;7885;42.596;23.044;2023-04-23T09:57:12;4.97;;;3.07;;
15567;SDS011;7885;42.596;23.044;2023-04-23T09:59:39;3.63;;;2.90;;
15567;SDS011;7885;42.596;23.044;2023-04-23T10:02:06;5.37;;;2.87;;
15567;SDS011;7885;42.596;23.044;2023-04-23T10:04:33;4.93;;;2.60;;
15567;SDS011;7885;42.596;23.044;2023-04-23T10:07:01;4.37;;;3.60;;
15567;SDS011;7885;42.596;23.044;2023-04-23T10:09:32;5.13;;;3.20;;
15567;SDS011;7885;42.596;23.044;2023-04-23T10:12:00;5.37;;;3.03;;
15567;SDS011;7885;42.596;23.044;2023-04-23T10:14:29;5.70;;;3.00;;
15567;SDS011;7885;42.596;23.044;2023-04-23T10:16:57;4.80;;;2.90;;
15567;SDS011;7885;42.596;23.044;2023-04-23T10:19:25;3.47;;;2.87;;
15567;SDS011;7885;42.596;23.044;2023-04-23T10:21:53;5.17;;;2.80;;
15567;SDS011;7885;42.596;23.044;2023-04-23T10:24:24;4.87;;;2.80;;
15567;SDS011;7885;42.596;23.044;2023-04-23T10:26:55;8.80;;;3.33;;
15567;SDS011;7885;42.596;23.044;2023-04-23T10:29:25;6.37;;;3.30;;
15567;SDS011;7885;42.596;23.044;2023-04-23T10:31:55;4.13;;;2.80;;
15567;SDS011;7885;42.596;23.044;2023-04-23T10:34:24;4.93;;;3.00;;
15567;SDS011;7885;42.596;23.044;2023-04-23T10:36:52;6.83;;;3.03;;
15567;SDS011;7885;42.596;23.044;2023-04-23T10:39:19;12.23;;;9.53;;
15567;SDS011;7885;42.596;23.044;2023-04-23T10:41:47;10.70;;;9.00;;
15567;SDS011;7885;42.596;23.044;2023-04-23T10:47:38;7.97;;;7.17;;
15567;SDS011;7885;42.596;23.044;2023-04-23T10:50:16;7.90;;;6.10;;
15567;SDS011;7885;42.596;23.044;2023-04-23T10:52:44;5.93;;;3.33;;
15567;SDS011;7885;42.596;23.044;2023-04-23T10:55:15;5.13;;;2.80;;
15567;SDS011;7885;42.596;23.044;2023-04-23T10:57:54;4.60;;;3.17;;
15567;SDS011;7885;42.596;23.044;2023-04-23T11:00:25;5.40;;;3.70;;
15567;SDS011;7885;42.596;23.044;2023-04-23T11:02:53;7.87;;;3.70;;
15567;SDS011;7885;42.596;23.044;2023-04-23T11:05:20;5.00;;;3.23;;
15567;SDS011;7885;42.596;23.044;2023-04-23T11:08:01;3.93;;;3.53;;
15567;SDS011;7885;42.596;23.044;2023-04-23T11:10:29;4.27;;;3.40;;
15567;SDS011;7885;42.596;23.044;2023-04-23T11:12:57;4.83;;;2.63;;
15567;SDS011;7885;42.596;23.044;2023-04-23T11:15:23;3.83;;;2.77;;
15567;SDS011;7885;42.596;23.044;2023-04-23T11:18:00;12.40;;;9.33;;
15567;SDS011;7885;42.596;23.044;2023-04-23T11:20:27;2.93;;;2.63;;
15567;SDS011;7885;42.596;23.044;2023-04-23T11:22:54;4.83;;;3.20;;
15567;SDS011;7885;42.596;23.044;2023-04-23T11:25:21;3.30;;;3.00;;
15567;SDS011;7885;42.596;23.044;2023-04-23T11:27:50;5.63;;;3.23;;
15567;SDS011;7885;42.596;23.044;2023-04-23T11:30:18;4.07;;;2.70;;
15567;SDS011;7885;42.596;23.044;2023-04-23T11:32:48;5.33;;;2.93;;
15567;SDS011;7885;42.596;23.044;2023-04-23T11:35:18;3.27;;;2.63;;
15567;SDS011;7885;42.596;23.044;2023-04-23T11:37:46;4.27;;;3.10;;
15567;SDS011;7885;42.596;23.044;2023-04-23T11:40:13;4.20;;;2.90;;
15567;SDS011;7885;42.596;23.044;2023-04-23T11:42:43;4.43;;;3.20;;
15567;SDS011;7885;42.596;23.044;2023-04-23T11:45:15;4.37;;;3.10;;
15567;SDS011;7885;42.596;23.044;2023-04-23T11:47:43;4.50;;;3.23;;
15567;SDS011;7885;42.596;23.044;2023-04-23T11:50:10;3.70;;;2.90;;
15567;SDS011;7885;42.596;23.044;2023-04-23T11:52:44;4.20;;;3.10;;
15567;SDS011;7885;42.596;23.044;2023-04-23T11:55:11;3.47;;;3.17;;
15567;SDS011;7885;42.596;23.044;2023-04-23T11:57:40;4.93;;;3.30;;
15567;SDS011;7885;42.596;23.044;2023-04-23T12:00:14;5.17;;;4.10;;
15567;SDS011;7885;42.596;23.044;2023-04-23T12:02:49;6.80;;;3.57;;
15567;SDS011;7885;42.596;23.044;2023-04-23T12:05:19;5.57;;;3.30;;
15567;SDS011;7885;42.596;23.044;2023-04-23T12:07:47;6.03;;;3.13;;
15567;SDS011;7885;42.596;23.044;2023-04-23T12:10:16;5.20;;;3.03;;
15567;SDS011;7885;42.596;23.044;2023-04-23T12:12:47;5.03;;;3.53;;
15567;SDS011;7885;42.596;23.044;2023-04-23T12:15:14;5.13;;;3.50;;
15567;SDS011;7885;42.596;23.044;2023-04-23T12:17:41;4.93;;;3.87;;
15567;SDS011;7885;42.596;23.044;2023-04-23T12:20:08;5.07;;;3.70;;
15567;SDS011;7885;42.596;23.044;2023-04-23T12:22:39;5.13;;;2.87;;
15567;SDS011;7885;42.596;23.044;2023-04-23T12:25:05;5.23;;;2.90;;
15567;SDS011;7885;42.596;23.044;2023-04-23T12:27:37;12.50;;;5.70;;
15567;SDS011;7885;42.596;23.044;2023-04-23T12:30:05;3.97;;;3.57;;
15567;SDS011;7885;42.596;23.044;2023-04-23T12:32:33;4.43;;;3.30;;
15567;SDS011;7885;42.596;23.044;2023-04-23T12:34:59;4.47;;;4.07;;
15567;SDS011;7885;42.596;23.044;2023-04-23T12:37:30;4.57;;;3.30;;
15567;SDS011;7885;42.596;23.044;2023-04-23T12:40:02;3.93;;;3.47;;
15567;SDS011;7885;42.596;23.044;2023-04-23T12:42:31;5.83;;;3.13;;
15567;SDS011;7885;42.596;23.044;2023-04-23T12:45:03;4.13;;;3.17;;
15567;SDS011;7885;42.596;23.044;2023-04-23T12:47:31;3.57;;;2.80;;
15567;SDS011;7885;42.596;23.044;2023-04-23T12:49:58;3.03;;;2.73;;
15567;SDS011;7885;42.596;23.044;2023-04-23T12:52:25;4.10;;;3.67;;
15567;SDS011;7885;42.596;23.044;2023-04-23T12:54:52;4.33;;;3.30;;
15567;SDS011;7885;42.596;23.044;2023-04-23T12:57:21;3.53;;;3.23;;
15567;SDS011;7885;42.596;23.044;2023-04-23T12:59:48;4.33;;;2.97;;
15567;SDS011;7885;42.596;23.044;2023-04-23T13:02:15;5.30;;;2.90;;
15567;SDS011;7885;42.596;23.044;2023-04-23T13:04:42;3.70;;;3.10;;
15567;SDS011;7885;42.596;23.044;2023-04-23T13:07:08;4.13;;;3.03;;
15567;SDS011;7885;42.596;23.044;2023-04-23T13:09:35;4.57;;;3.30;;
15567;SDS011;7885;42.596;23.044;2023-04-23T13:12:02;4.87;;;3.20;;
15567;SDS011;7885;42.596;23.044;2023-04-23T13:14:30;4.23;;;3.13;;
15567;SDS011;7885;42.596;23.044;2023-04-23T13:16:57;3.57;;;3.20;;
15567;SDS011;7885;42.596;23.044;2023-04-23T13:19:24;5.87;;;3.30;;
15567;SDS011;7885;42.596;23.044;2023-04-23T13:21:50;5.80;;;3.20;;
15567;SDS011;7885;42.596;23.044;2023-04-23T13:24:17;2.93;;;2.73;;
15567;SDS011;7885;42.596;23.044;2023-04-23T13:26:44;3.97;;;2.70;;
15567;SDS011;7885;42.596;23.044;2023-04-23T13:29:11;5.47;;;2.83;;
15567;SDS011;7885;42.596;23.044;2023-04-23T13:31:39;6.73;;;3.30;;
15567;SDS011;7885;42.596;23.044;2023-04-23T13:34:06;4.10;;;3.03;;
15567;SDS011;7885;42.596;23.044;2023-04-23T13:36:32;6.03;;;3.00;;
15567;SDS011;7885;42.596;23.044;2023-04-23T13:38:59;3.07;;;2.83;;
15567;SDS011;7885;42.596;23.044;2023-04-23T13:41:26;4.80;;;3.10;;
15567;SDS011;7885;42.596;23.044;2023-04-23T13:43:52;4.67;;;3.03;;
15567;SDS011;7885;42.596;23.044;2023-04-23T13:46:19;4.90;;;3.30;;
15567;SDS011;7885;42.596;23.044;2023-04-23T13:48:47;4.70;;;3.00;;
15567;SDS011;7885;42.596;23.044;2023-04-23T13:51:14;4.73;;;2.97;;
15567;SDS011;7885;42.596;23.044;2023-04-23T13:53:41;3.83;;;2.93;;
15567;SDS011;7885;42.596;23.044;2023-04-23T13:56:08;6.40;;;2.90;;
15567;SDS011;7885;42.596;23.044;2023-04-23T13:58:35;3.00;;;2.67;;
15567;SDS011;7885;42.596;23.044;2023-04-23T14:01:03;3.50;;;3.13;;
15567;SDS011;7885;42.596;23.044;2023-04-23T14:03:30;4.97;;;2.83;;
15567;SDS011;7885;42.596;23.044;2023-04-23T14:05:58;4.40;;;2.90;;
15567;SDS011;7885;42.596;23.044;2023-04-23T14:08:26;4.80;;;2.67;;
15567;SDS011;7885;42.596;23.044;2023-04-23T14:10:53;3.17;;;2.87;;
15567;SDS011;7885;42.596;23.044;2023-04-23T14:13:19;3.87;;;2.67;;
15567;SDS011;7885;42.596;23.044;2023-04-23T14:15:47;6.73;;;2.90;;
15567;SDS011;7885;42.596;23.044;2023-04-23T14:18:14;5.57;;;2.63;;
15567;SDS011;7885;42.596;23.044;2023-04-23T14:20:41;3.33;;;3.03;;
15567;SDS011;7885;42.596;23.044;2023-04-23T14:26:09;5.93;;;3.13;;
15567;SDS011;7885;42.596;23.044;2023-04-23T14:28:49;4.20;;;2.80;;
15567;SDS011;7885;42.596;23.044;2023-04-23T14:31:17;3.23;;;2.90;;
15567;SDS011;7885;42.596;23.044;2023-04-23T14:33:43;2.90;;;2.67;;
15567;SDS011;7885;42.596;23.044;2023-04-23T14:36:10;4.33;;;2.40;;
15567;SDS011;7885;42.596;23.044;2023-04-23T14:38:38;4.10;;;2.83;;
15567;SDS011;7885;42.596;23.044;2023-04-23T14:41:05;2.80;;;2.50;;
15567;SDS011;7885;42.596;23.044;2023-04-23T14:43:32;11.33;;;2.80;;
15567;SDS011;7885;42.596;23.044;2023-04-23T14:45:59;5.70;;;3.03;;
15567;SDS011;7885;42.596;23.044;2023-04-23T14:48:26;4.10;;;2.73;;
15567;SDS011;7885;42.596;23.044;2023-04-23T14:50:53;2.63;;;2.43;;